createdAt,value
2023-03-18T00:00:11.429Z,52293.63
2023-03-18T00:02:40.221Z,52273.28
2023-03-18T00:05:09.111Z,52330.25
2023-03-18T00:07:36.330Z,52281.44
2023-03-18T00:10:07.587Z,52309.91
2023-03-18T00:12:34.471Z,52324.16
2023-03-18T00:15:01.118Z,52287.53
2023-03-18T00:17:28.159Z,52340.44
2023-03-18T00:19:55.221Z,52326.19
2023-03-18T00:22:21.863Z,52307.88
2023-03-18T00:24:49.093Z,52297.72
2023-03-18T00:27:15.676Z,52311.94
2023-03-18T00:29:42.215Z,52318.06
2023-03-18T00:32:09.162Z,52305.84
2023-03-18T00:34:35.624Z,52275.31
2023-03-18T00:37:02.075Z,52271.25
2023-03-18T00:39:31.350Z,52305.84
2023-03-18T00:41:58.239Z,52293.63
2023-03-18T00:44:27.571Z,52287.53
2023-03-18T00:46:54.167Z,52309.91
2023-03-18T00:49:20.578Z,52305.84
2023-03-18T00:51:47.539Z,52328.22
2023-03-18T00:54:18.157Z,52330.25
2023-03-18T00:56:44.788Z,52299.75
2023-03-18T00:59:11.914Z,52330.25
2023-03-18T01:01:39.075Z,52322.13
2023-03-18T01:04:06.251Z,52297.72
2023-03-18T01:06:33.914Z,52299.75
2023-03-18T01:09:01.487Z,52269.22
2023-03-18T01:11:29.326Z,52318.06
2023-03-18T01:13:56.267Z,52283.47
2023-03-18T01:16:23.325Z,52346.53
2023-03-18T01:18:50.176Z,52356.72
2023-03-18T01:21:18.088Z,52311.94
2023-03-18T01:23:45.165Z,52293.63
2023-03-18T01:26:11.534Z,52348.56
2023-03-18T01:28:38.235Z,52318.06
2023-03-18T01:31:05.569Z,52324.16
2023-03-18T01:33:31.989Z,52328.22
2023-03-18T01:36:02.353Z,52348.56
2023-03-18T01:38:30.368Z,52320.09
2023-03-18T01:40:59.053Z,52277.34
2023-03-18T01:43:32.211Z,52301.78
2023-03-18T01:46:00.972Z,52340.44
2023-03-18T01:48:30.956Z,52311.94
2023-03-18T01:51:04.155Z,52330.25
2023-03-18T01:53:37.334Z,52309.91
2023-03-18T01:56:04.174Z,52332.28
2023-03-18T01:58:41.837Z,52307.88
2023-03-18T02:01:26.269Z,52318.06
2023-03-18T02:03:54.121Z,52313.97
2023-03-18T02:06:20.782Z,52324.16
2023-03-18T02:08:47.895Z,52318.06
2023-03-18T02:11:14.555Z,52320.09
2023-03-18T02:13:43.987Z,52322.13
2023-03-18T02:16:14.260Z,52295.66
2023-03-18T02:18:51.698Z,52289.56
2023-03-18T02:21:54.234Z,52364.84
2023-03-18T02:24:54.501Z,52313.97
2023-03-18T02:27:30.895Z,52301.78
2023-03-18T02:30:01.675Z,52332.28
2023-03-18T02:32:31.068Z,52381.13
2023-03-18T02:35:01.246Z,52271.25
2023-03-18T02:37:27.635Z,52293.63
2023-03-18T02:39:54.080Z,52303.81
2023-03-18T02:42:31.538Z,52318.06
2023-03-18T02:44:59.767Z,52303.81
2023-03-18T02:47:28.528Z,52336.38
2023-03-18T02:49:55.430Z,52350.59
2023-03-18T02:52:22.403Z,52328.22
2023-03-18T02:54:48.741Z,52297.72
2023-03-18T02:57:15.197Z,52340.44
2023-03-18T02:59:41.861Z,52313.97
2023-03-18T03:02:08.384Z,52305.84
2023-03-18T03:04:34.915Z,52297.72
2023-03-18T03:07:02.185Z,52305.84
2023-03-18T03:09:28.862Z,52350.59
2023-03-18T03:11:55.279Z,52338.41
2023-03-18T03:14:21.746Z,52324.16
2023-03-18T03:16:48.510Z,52313.97
2023-03-18T03:19:15.754Z,52307.88
2023-03-18T03:21:42.415Z,52305.84
2023-03-18T03:24:09.837Z,52342.47
2023-03-18T03:26:36.351Z,52328.22
2023-03-18T03:29:04.625Z,52381.13
2023-03-18T03:31:31.821Z,52328.22
2023-03-18T03:33:58.645Z,52356.72
2023-03-18T03:36:25.454Z,52338.41
2023-03-18T03:38:51.891Z,52316.03
2023-03-18T03:41:19.631Z,52340.44
2023-03-18T03:43:46.227Z,52326.19
2023-03-18T03:46:13.100Z,52342.47
2023-03-18T03:48:39.738Z,52324.16
2023-03-18T03:51:07.094Z,52342.47
2023-03-18T03:53:34.443Z,52342.47
2023-03-18T03:56:00.971Z,52340.44
2023-03-18T03:58:27.779Z,52313.97
2023-03-18T04:00:54.218Z,52350.59
2023-03-18T04:03:20.598Z,52324.16
2023-03-18T04:05:47.690Z,52330.25
2023-03-18T04:08:14.112Z,52356.72
2023-03-18T04:10:40.555Z,52360.78
2023-03-18T04:13:07.338Z,52342.47
2023-03-18T04:15:34.248Z,52324.16
2023-03-18T04:18:06.613Z,52330.25
2023-03-18T04:20:35.642Z,52342.47
2023-03-18T04:23:02.662Z,52377.06
2023-03-18T04:25:29.667Z,52389.28
2023-03-18T04:27:56.867Z,52342.47
2023-03-18T04:30:25.578Z,52364.84
2023-03-18T04:32:52.195Z,52366.88
2023-03-18T04:35:19.710Z,52338.41
2023-03-18T04:37:46.202Z,52346.53
2023-03-18T04:40:12.820Z,52370.97
2023-03-18T04:42:39.460Z,52326.19
2023-03-18T04:45:07.040Z,52324.16
2023-03-18T04:47:35.689Z,52334.34
2023-03-18T04:50:04.482Z,52370.97
2023-03-18T04:52:30.890Z,52354.69
2023-03-18T04:54:57.546Z,52362.81
2023-03-18T04:57:24.108Z,52352.66
2023-03-18T04:59:50.880Z,52358.75
2023-03-18T05:02:17.396Z,52336.38
2023-03-18T05:04:43.946Z,52342.47
2023-03-18T05:07:15.404Z,52373.00
2023-03-18T05:09:42.423Z,52354.69
2023-03-18T05:12:15.681Z,52385.19
2023-03-18T05:14:42.842Z,52354.69
2023-03-18T05:17:15.619Z,52334.34
2023-03-18T05:19:46.494Z,52322.13
2023-03-18T05:22:15.343Z,52383.16
2023-03-18T05:24:48.687Z,52338.41
2023-03-18T05:27:18.325Z,52344.50
2023-03-18T05:29:45.809Z,52305.84
2023-03-18T05:32:14.672Z,52338.41
2023-03-18T05:34:41.780Z,52387.22
2023-03-18T05:37:10.012Z,52379.09
2023-03-18T05:39:37.038Z,52368.94
2023-03-18T05:42:04.705Z,52375.03
2023-03-18T05:44:31.424Z,52338.41
2023-03-18T05:46:58.576Z,52342.47
2023-03-18T05:49:25.392Z,52368.94
2023-03-18T05:51:54.719Z,52338.41
2023-03-18T05:54:22.055Z,52358.75
2023-03-18T05:56:49.891Z,52344.50
2023-03-18T05:59:16.401Z,52407.59
2023-03-18T06:01:42.856Z,52360.78
2023-03-18T06:04:10.202Z,52356.72
2023-03-18T06:06:39.506Z,52375.03
2023-03-18T06:09:10.835Z,52350.59
2023-03-18T06:11:38.134Z,52334.34
2023-03-18T06:14:06.543Z,52354.69
2023-03-18T06:16:35.174Z,52348.56
2023-03-18T06:19:02.575Z,52383.16
2023-03-18T06:21:29.318Z,52340.44
2023-03-18T06:23:55.787Z,52383.16
2023-03-18T06:26:22.389Z,52342.47
2023-03-18T06:28:48.838Z,52348.56
2023-03-18T06:31:15.420Z,52305.84
2023-03-18T06:33:41.968Z,52336.38
2023-03-18T06:36:08.718Z,52342.47
2023-03-18T06:38:35.130Z,52303.81
2023-03-18T06:41:01.994Z,52320.09
2023-03-18T06:43:28.645Z,52328.22
2023-03-18T06:45:55.192Z,52334.34
2023-03-18T06:48:21.651Z,52373.00
2023-03-18T06:50:48.168Z,52316.03
2023-03-18T06:53:14.555Z,52354.69
2023-03-18T06:55:41.518Z,52340.44
2023-03-18T06:58:07.829Z,52364.84
2023-03-18T07:00:36.041Z,52311.94
2023-03-18T07:03:02.595Z,52273.28
2023-03-18T07:05:29.193Z,52342.47
2023-03-18T07:07:55.724Z,52307.88
2023-03-18T07:10:29.172Z,52289.56
2023-03-18T07:12:56.289Z,52322.13
2023-03-18T07:15:23.959Z,52287.53
2023-03-18T07:17:52.244Z,52273.28
2023-03-18T07:20:19.554Z,52259.03
2023-03-18T07:22:49.166Z,52297.72
2023-03-18T07:25:15.600Z,52305.84
2023-03-18T07:27:42.438Z,52291.59
2023-03-18T07:30:10.094Z,52273.28
2023-03-18T07:32:38.466Z,52263.13
2023-03-18T07:35:06.297Z,52289.56
2023-03-18T07:37:33.490Z,52301.78
2023-03-18T07:40:00.138Z,52244.81
2023-03-18T07:42:26.860Z,52240.75
2023-03-18T07:44:53.607Z,52252.94
2023-03-18T07:47:20.954Z,52234.63
2023-03-18T07:49:47.653Z,52263.13
2023-03-18T07:52:14.974Z,52269.22
2023-03-18T07:54:41.680Z,52240.75
2023-03-18T07:57:08.252Z,52204.13
2023-03-18T07:59:34.887Z,52224.47
2023-03-18T08:02:01.601Z,52216.31
2023-03-18T08:04:28.700Z,52236.66
2023-03-18T08:06:55.555Z,52212.25
2023-03-18T08:09:22.363Z,52240.75
2023-03-18T08:11:48.891Z,52216.31
2023-03-18T08:14:15.641Z,52177.66
2023-03-18T08:16:42.456Z,52212.25
2023-03-18T08:19:08.870Z,52210.22
2023-03-18T08:21:35.568Z,52193.94
2023-03-18T08:24:03.389Z,52218.34
2023-03-18T08:26:30.083Z,52200.03
2023-03-18T08:28:59.538Z,52183.75
2023-03-18T08:31:26.066Z,52181.72
2023-03-18T08:33:55.707Z,52228.53
2023-03-18T08:36:23.607Z,52191.91
2023-03-18T08:38:50.675Z,52193.94
2023-03-18T08:41:17.152Z,52208.19
2023-03-18T08:43:45.035Z,52189.88
2023-03-18T08:46:11.920Z,52171.56
2023-03-18T08:48:38.471Z,52179.69
2023-03-18T08:51:14.654Z,52163.41
2023-03-18T08:53:41.029Z,52159.34
2023-03-18T08:56:11.739Z,52189.88
2023-03-18T08:58:39.902Z,52167.50
2023-03-18T09:01:11.817Z,52130.88
2023-03-18T09:03:38.714Z,52120.69
2023-03-18T09:06:06.184Z,52116.63
2023-03-18T09:08:33.762Z,52084.06
2023-03-18T09:11:00.402Z,52139.00
2023-03-18T09:13:27.547Z,52130.88
2023-03-18T09:15:54.473Z,52112.56
2023-03-18T09:18:22.976Z,52096.28
2023-03-18T09:20:50.239Z,52098.31
2023-03-18T09:23:18.254Z,52037.28
2023-03-18T09:25:46.590Z,52104.41
2023-03-18T09:28:14.267Z,52041.34
2023-03-18T09:30:40.954Z,52071.84
2023-03-18T09:33:09.199Z,52067.78
2023-03-18T09:35:36.679Z,52069.81
2023-03-18T09:38:04.211Z,52051.50
2023-03-18T09:40:38.407Z,52029.13
2023-03-18T09:43:38.346Z,52021.00
2023-03-18T09:46:23.528Z,51992.50
2023-03-18T09:49:18.728Z,51986.41
2023-03-18T09:51:57.537Z,52006.75
2023-03-18T09:54:36.416Z,51984.38
2023-03-18T09:57:04.014Z,52051.50
2023-03-18T09:59:58.578Z,52027.09
2023-03-18T10:02:48.337Z,52035.25
2023-03-18T10:05:20.980Z,52014.88
2023-03-18T10:07:52.447Z,52021.00
2023-03-18T10:10:28.104Z,52010.81
2023-03-18T10:13:22.900Z,51992.50
2023-03-18T10:15:54.617Z,51998.63
2023-03-18T10:18:26.445Z,51970.13
2023-03-18T10:21:14.622Z,51951.81
2023-03-18T10:23:47.780Z,51943.69
2023-03-18T10:26:30.644Z,51959.97
2023-03-18T10:29:08.267Z,51939.63
2023-03-18T10:31:59.028Z,51945.72
2023-03-18T10:34:40.488Z,51927.41
2023-03-18T10:37:16.978Z,51935.53
2023-03-18T10:39:45.717Z,51986.41
2023-03-18T10:42:24.868Z,51931.47
2023-03-18T10:44:53.168Z,51957.91
2023-03-18T10:47:28.219Z,51974.19
2023-03-18T10:50:23.369Z,51966.06
2023-03-18T10:53:27.308Z,51951.81
2023-03-18T10:56:10.528Z,51957.91
2023-03-18T10:58:43.785Z,51990.47
2023-03-18T11:01:17.200Z,51968.09
2023-03-18T11:03:50.398Z,51925.38
2023-03-18T11:06:22.006Z,51972.16
2023-03-18T11:08:48.840Z,51957.91
2023-03-18T11:11:33.173Z,51945.72
2023-03-18T11:14:02.294Z,51949.78
2023-03-18T11:16:33.181Z,51978.28
2023-03-18T11:19:06.492Z,51980.31
2023-03-18T11:21:34.563Z,51923.34
2023-03-18T11:24:10.872Z,51964.03
2023-03-18T11:27:05.377Z,51972.16
2023-03-18T11:29:34.459Z,51947.75
2023-03-18T11:32:02.293Z,51982.34
2023-03-18T11:34:31.399Z,51959.97
2023-03-18T11:37:08.237Z,51962.00
2023-03-18T11:39:37.799Z,51939.63
2023-03-18T11:42:18.046Z,51945.72
2023-03-18T11:44:44.541Z,51939.63
2023-03-18T11:47:19.739Z,51931.47
2023-03-18T11:49:46.160Z,51921.31
2023-03-18T11:52:24.446Z,51923.34
2023-03-18T11:55:04.556Z,51957.91
2023-03-18T11:57:50.141Z,51900.97
2023-03-18T12:00:33.545Z,51921.31
2023-03-18T12:03:35.473Z,51935.53
2023-03-18T12:06:28.594Z,51929.44
2023-03-18T12:09:09.254Z,51888.75
2023-03-18T12:11:44.658Z,51882.66
2023-03-18T12:14:27.301Z,51909.09
2023-03-18T12:17:07.461Z,51896.88
2023-03-18T12:19:42.789Z,51927.41
2023-03-18T12:22:39.338Z,51900.97
2023-03-18T12:25:33.652Z,51886.72
2023-03-18T12:28:28.945Z,51894.84
2023-03-18T12:31:19.162Z,51953.84
2023-03-18T12:34:04.441Z,51931.47
2023-03-18T12:36:36.963Z,51966.06
2023-03-18T12:39:33.936Z,51931.47
2023-03-18T12:42:09.880Z,51962.00
2023-03-18T12:45:02.104Z,51927.41
2023-03-18T12:47:53.480Z,51925.38
2023-03-18T12:50:38.425Z,51941.66
2023-03-18T12:53:16.962Z,51935.53
2023-03-18T12:55:51.863Z,51915.19
2023-03-18T12:58:23.416Z,51953.84
2023-03-18T13:00:53.147Z,51915.19
2023-03-18T13:03:31.216Z,51974.19
2023-03-18T13:06:12.600Z,51907.06
2023-03-18T13:08:42.006Z,51898.91
2023-03-18T13:11:25.829Z,51929.44
2023-03-18T13:14:01.925Z,51939.63
2023-03-18T13:16:30.328Z,51941.66
2023-03-18T13:18:58.005Z,51915.19
2023-03-18T13:21:29.520Z,51862.31
2023-03-18T13:24:09.397Z,51900.97
2023-03-18T13:27:08.859Z,51911.13
2023-03-18T13:30:03.857Z,51890.78
2023-03-18T13:32:48.945Z,51858.22
2023-03-18T13:35:34.325Z,51854.16
2023-03-18T13:38:42.932Z,51886.72
2023-03-18T13:41:34.472Z,51896.88
2023-03-18T13:44:06.589Z,51888.75
2023-03-18T13:46:34.947Z,51882.66
2023-03-18T13:49:03.647Z,51876.53
2023-03-18T13:51:30.188Z,51858.22
2023-03-18T13:54:00.836Z,51900.97
2023-03-18T13:56:44.822Z,51892.81
2023-03-18T13:59:32.884Z,51827.72
2023-03-18T14:02:35.455Z,51862.31
2023-03-18T14:05:02.490Z,51860.25
2023-03-18T14:07:29.582Z,51870.44
2023-03-18T14:10:17.999Z,51866.38
2023-03-18T14:12:50.177Z,51860.25
2023-03-18T14:15:37.154Z,51809.41
2023-03-18T14:18:03.953Z,51844.00
2023-03-18T14:20:39.702Z,51866.38
2023-03-18T14:23:27.079Z,51833.81
2023-03-18T14:26:21.449Z,51858.22
2023-03-18T14:28:55.038Z,51866.38
2023-03-18T14:31:39.793Z,51864.34
2023-03-18T14:34:18.044Z,51878.56
2023-03-18T14:37:05.252Z,51839.91
2023-03-18T14:39:38.612Z,51852.13
2023-03-18T14:42:24.876Z,51874.50
2023-03-18T14:44:53.973Z,51854.16
2023-03-18T14:47:50.838Z,51890.78
2023-03-18T14:50:29.641Z,51860.25
2023-03-18T14:53:15.415Z,51872.47
2023-03-18T14:55:43.738Z,51890.78
2023-03-18T14:58:16.743Z,51878.56
2023-03-18T15:00:44.077Z,51892.81
2023-03-18T15:03:21.926Z,51852.13
2023-03-18T15:05:49.418Z,51874.50
2023-03-18T15:08:22.768Z,51862.31
2023-03-18T15:10:51.701Z,51866.38
2023-03-18T15:13:30.431Z,51896.88
2023-03-18T15:15:57.101Z,51890.78
2023-03-18T15:18:34.442Z,51884.69
2023-03-18T15:21:29.073Z,51884.69
2023-03-18T15:24:00.261Z,51900.97
2023-03-18T15:26:34.205Z,51911.13
2023-03-18T15:29:03.569Z,51903.00
2023-03-18T15:31:33.000Z,51941.66
2023-03-18T15:34:14.322Z,51933.50
2023-03-18T15:36:52.902Z,51974.19
2023-03-18T15:39:32.154Z,51915.19
2023-03-18T15:42:00.547Z,51964.03
2023-03-18T15:44:31.710Z,51976.22
2023-03-18T15:47:27.405Z,51966.06
2023-03-18T15:50:18.718Z,51943.69
2023-03-18T15:52:46.624Z,51986.41
2023-03-18T15:55:34.538Z,51976.22
2023-03-18T15:58:04.104Z,51959.97
2023-03-18T16:00:32.550Z,51951.81
2023-03-18T16:02:59.692Z,51923.34
2023-03-18T16:05:28.181Z,51947.75
2023-03-18T16:07:59.199Z,52029.13
2023-03-18T16:10:30.586Z,52014.88
2023-03-18T16:13:01.775Z,51996.59
2023-03-18T16:15:29.736Z,52016.94
2023-03-18T16:17:56.666Z,51994.53
2023-03-18T16:20:24.851Z,52008.78
2023-03-18T16:22:51.997Z,52002.69
2023-03-18T16:25:18.492Z,52018.97
2023-03-18T16:27:47.407Z,52027.09
2023-03-18T16:30:20.718Z,52021.00
2023-03-18T16:32:47.332Z,52023.03
2023-03-18T16:35:16.017Z,52041.34
2023-03-18T16:37:44.712Z,52029.13
2023-03-18T16:40:22.681Z,52023.03
2023-03-18T16:42:49.861Z,52049.47
2023-03-18T16:45:24.137Z,52061.69
2023-03-18T16:47:51.964Z,52059.66
2023-03-18T16:50:19.816Z,52012.84
2023-03-18T16:52:47.476Z,52059.66
2023-03-18T16:55:16.217Z,52069.81
2023-03-18T16:57:46.945Z,52063.72
2023-03-18T17:00:31.883Z,52023.03
2023-03-18T17:03:02.082Z,52041.34
2023-03-18T17:05:29.034Z,52065.75
2023-03-18T17:07:55.401Z,52086.09
2023-03-18T17:10:27.125Z,52035.25
2023-03-18T17:13:06.107Z,52114.59
2023-03-18T17:15:36.859Z,52051.50
2023-03-18T17:18:05.326Z,52071.84
2023-03-18T17:20:34.951Z,52086.09
2023-03-18T17:23:01.488Z,52071.84
2023-03-18T17:28:18.010Z,52102.38
2023-03-18T17:30:44.543Z,52094.25
2023-03-18T17:33:25.899Z,52100.34
2023-03-18T17:35:53.092Z,52069.81
2023-03-18T17:38:23.619Z,52102.38
2023-03-18T17:40:50.770Z,52092.22
2023-03-18T17:43:35.081Z,52130.88
2023-03-18T17:46:05.332Z,52080.00
2023-03-18T17:48:37.021Z,52120.69
2023-03-18T17:51:18.887Z,52108.47
2023-03-18T17:53:51.433Z,52128.81
2023-03-18T17:56:19.255Z,52088.13
2023-03-18T17:58:48.640Z,52116.63
2023-03-18T18:01:17.980Z,52122.72
2023-03-18T18:03:44.527Z,52104.41
2023-03-18T18:06:37.209Z,52136.97
2023-03-18T18:09:05.824Z,52145.09
2023-03-18T18:11:37.783Z,52159.34
2023-03-18T18:14:19.973Z,52149.19
2023-03-18T18:16:50.027Z,52141.03
2023-03-18T18:19:17.222Z,52141.03
2023-03-18T18:21:46.173Z,52159.34
2023-03-18T18:24:17.884Z,52171.56
2023-03-18T18:26:44.383Z,52136.97
2023-03-18T18:29:16.372Z,52157.31
2023-03-18T18:31:43.418Z,52118.66
2023-03-18T18:34:09.797Z,52139.00
2023-03-18T18:36:37.835Z,52147.13
2023-03-18T18:39:05.461Z,52145.09
2023-03-18T18:41:32.846Z,52151.22
2023-03-18T18:43:59.692Z,52153.25
2023-03-18T18:46:27.908Z,52157.31
2023-03-18T18:48:54.492Z,52153.25
2023-03-18T18:51:23.187Z,52167.50
2023-03-18T18:53:52.482Z,52161.38
2023-03-18T18:56:23.623Z,52173.59
2023-03-18T18:58:51.848Z,52149.19
2023-03-18T19:01:18.806Z,52126.78
2023-03-18T19:03:45.861Z,52175.63
2023-03-18T19:06:27.452Z,52187.84
2023-03-18T19:08:56.552Z,52169.53
2023-03-18T19:11:24.819Z,52191.91
2023-03-18T19:13:51.659Z,52179.69
2023-03-18T19:16:27.574Z,52185.81
2023-03-18T19:18:54.426Z,52183.75
2023-03-18T19:21:21.944Z,52195.97
2023-03-18T19:23:48.834Z,52212.25
2023-03-18T19:26:16.610Z,52175.63
2023-03-18T19:28:57.766Z,52181.72
2023-03-18T19:31:32.255Z,52216.31
2023-03-18T19:34:00.163Z,52195.97
2023-03-18T19:36:39.611Z,52212.25
2023-03-18T19:39:12.716Z,52206.16
2023-03-18T19:41:39.203Z,52171.56
2023-03-18T19:44:19.132Z,52208.19
2023-03-18T19:46:46.687Z,52200.03
2023-03-18T19:49:17.884Z,52224.47
2023-03-18T19:51:44.743Z,52189.88
2023-03-18T19:54:32.177Z,52175.63
2023-03-18T19:57:02.205Z,52224.47
2023-03-18T19:59:37.418Z,52216.31
2023-03-18T20:02:16.662Z,52179.69
2023-03-18T20:04:43.132Z,52187.84
2023-03-18T20:07:09.597Z,52202.06
2023-03-18T20:09:36.020Z,52202.06
2023-03-18T20:12:05.868Z,52167.50
2023-03-18T20:14:38.242Z,52191.91
2023-03-18T20:17:28.178Z,52214.28
2023-03-18T20:19:54.621Z,52177.66
2023-03-18T20:22:28.341Z,52187.84
2023-03-18T20:24:55.176Z,52206.16
2023-03-18T20:27:22.185Z,52236.66
2023-03-18T20:29:48.638Z,52202.06
2023-03-18T20:32:15.139Z,52185.81
2023-03-18T20:34:42.958Z,52198.00
2023-03-18T20:37:34.910Z,52216.31
2023-03-18T20:40:10.877Z,52242.78
2023-03-18T20:42:37.332Z,52204.13
2023-03-18T20:45:04.030Z,52202.06
2023-03-18T20:47:30.661Z,52204.13
2023-03-18T20:49:57.089Z,52155.28
2023-03-18T20:52:27.596Z,52187.84
2023-03-18T20:54:54.669Z,52210.22
2023-03-18T20:57:21.116Z,52238.69
2023-03-18T20:59:52.311Z,52216.31
2023-03-18T21:02:33.578Z,52244.81
2023-03-18T21:05:01.548Z,52212.25
2023-03-18T21:07:28.496Z,52195.97
2023-03-18T21:09:55.066Z,52224.47
2023-03-18T21:12:22.200Z,52200.03
2023-03-18T21:14:49.731Z,52195.97
2023-03-18T21:17:21.432Z,52232.59
2023-03-18T21:19:49.053Z,52191.91
2023-03-18T21:22:21.665Z,52216.31
2023-03-18T21:24:51.334Z,52204.13
2023-03-18T21:27:22.766Z,52206.16
2023-03-18T21:29:51.119Z,52226.50
2023-03-18T21:32:29.979Z,52232.59
2023-03-18T21:34:56.924Z,52226.50
2023-03-18T21:37:25.620Z,52202.06
2023-03-18T21:39:52.296Z,52204.13
2023-03-18T21:42:24.108Z,52195.97
2023-03-18T21:44:50.992Z,52198.00
2023-03-18T21:47:19.758Z,52195.97
2023-03-18T21:49:46.867Z,52224.47
2023-03-18T21:52:22.484Z,52226.50
2023-03-18T21:54:48.901Z,52208.19
2023-03-18T21:57:17.393Z,52204.13
2023-03-18T21:59:45.830Z,52210.22
2023-03-18T22:02:23.646Z,52244.81
2023-03-18T22:04:50.100Z,52220.38
2023-03-18T22:07:17.003Z,52230.56
2023-03-18T22:09:46.909Z,52185.81
2023-03-18T22:12:17.772Z,52179.69
2023-03-18T22:14:44.216Z,52224.47
2023-03-18T22:17:32.062Z,52218.34
2023-03-18T22:20:00.627Z,52210.22
2023-03-18T22:22:35.640Z,52208.19
2023-03-18T22:25:03.269Z,52204.13
2023-03-18T22:27:30.726Z,52204.13
2023-03-18T22:29:59.152Z,52206.16
2023-03-18T22:32:38.646Z,52208.19
2023-03-18T22:35:12.204Z,52193.94
2023-03-18T22:37:38.615Z,52202.06
2023-03-18T22:40:06.071Z,52202.06
2023-03-18T22:42:32.535Z,52179.69
2023-03-18T22:45:01.998Z,52193.94
2023-03-18T22:47:28.840Z,52167.50
2023-03-18T22:49:55.299Z,52206.16
2023-03-18T22:52:31.285Z,52222.41
2023-03-18T22:55:01.173Z,52212.25
2023-03-18T22:57:28.857Z,52189.88
2023-03-18T22:59:56.626Z,52200.03
2023-03-18T23:02:25.646Z,52232.59
2023-03-18T23:04:53.149Z,52214.28
2023-03-18T23:07:32.186Z,52183.75
2023-03-18T23:10:04.986Z,52187.84
2023-03-18T23:12:32.745Z,52202.06
2023-03-18T23:14:59.284Z,52191.91
2023-03-18T23:17:28.057Z,52183.75
2023-03-18T23:19:57.152Z,52202.06
2023-03-18T23:22:28.005Z,52228.53
2023-03-18T23:24:55.138Z,52185.81
2023-03-18T23:27:22.048Z,52202.06
2023-03-18T23:29:48.727Z,52208.19
2023-03-18T23:32:16.628Z,52254.97
2023-03-18T23:34:43.718Z,52226.50
2023-03-18T23:37:11.171Z,52238.69
2023-03-18T23:39:43.219Z,52273.28
2023-03-18T23:42:11.595Z,52222.41
2023-03-18T23:44:38.768Z,52220.38
2023-03-18T23:47:06.747Z,52224.47
2023-03-18T23:49:33.765Z,52220.38
2023-03-18T23:52:00.459Z,52224.47
2023-03-18T23:54:27.110Z,52224.47
2023-03-18T23:56:53.675Z,52224.47
2023-03-18T23:59:20.487Z,52171.56
